createdAt,value
2022-09-22T00:01:07.643Z,100.00
2022-09-22T00:03:43.100Z,100.00
2022-09-22T00:06:15.406Z,100.00
2022-09-22T00:08:43.914Z,100.00
2022-09-22T00:11:18.694Z,100.00
2022-09-22T00:13:51.134Z,100.00
2022-09-22T00:16:23.259Z,100.00
2022-09-22T00:18:50.027Z,100.00
2022-09-22T00:21:19.002Z,100.00
2022-09-22T00:23:47.204Z,100.00
2022-09-22T00:26:18.043Z,100.00
2022-09-22T00:28:46.252Z,100.00
2022-09-22T00:31:17.023Z,100.00
2022-09-22T00:33:45.017Z,100.00
2022-09-22T00:36:11.455Z,100.00
2022-09-22T00:38:39.564Z,100.00
2022-09-22T00:41:08.827Z,100.00
2022-09-22T00:43:37.465Z,100.00
2022-09-22T00:46:14.767Z,100.00
2022-09-22T00:48:57.489Z,100.00
2022-09-22T00:51:30.794Z,100.00
2022-09-22T00:54:01.567Z,100.00
2022-09-22T00:56:37.417Z,100.00
2022-09-22T00:59:09.349Z,100.00
2022-09-22T01:01:36.826Z,100.00
2022-09-22T01:04:04.326Z,100.00
2022-09-22T01:06:31.005Z,100.00
2022-09-22T01:08:58.979Z,100.00
2022-09-22T01:11:26.491Z,100.00
2022-09-22T01:13:52.794Z,100.00
2022-09-22T01:16:31.416Z,100.00
2022-09-22T01:19:13.835Z,100.00
2022-09-22T01:21:59.141Z,100.00
2022-09-22T01:24:38.812Z,100.00
2022-09-22T01:27:11.882Z,100.00
2022-09-22T01:30:26.018Z,100.00
2022-09-22T01:33:11.151Z,100.00
2022-09-22T01:35:48.925Z,100.00
2022-09-22T01:38:35.909Z,100.00
2022-09-22T01:41:08.647Z,100.00
2022-09-22T01:43:49.530Z,100.00
2022-09-22T01:46:25.087Z,100.00
2022-09-22T01:48:53.531Z,100.00
2022-09-22T01:51:25.991Z,100.00
2022-09-22T01:54:04.507Z,100.00
2022-09-22T01:56:34.230Z,100.00
2022-09-22T01:59:05.012Z,100.00
2022-09-22T02:01:47.824Z,100.00
2022-09-22T02:04:29.935Z,100.00
2022-09-22T02:07:02.361Z,100.00
2022-09-22T02:09:32.770Z,100.00
2022-09-22T02:11:59.737Z,100.00
2022-09-22T02:14:26.884Z,100.00
2022-09-22T02:16:54.386Z,100.00
2022-09-22T02:19:33.870Z,100.00
2022-09-22T02:22:00.706Z,100.00
2022-09-22T02:24:32.085Z,100.00
2022-09-22T02:27:04.378Z,100.00
2022-09-22T02:29:34.842Z,100.00
2022-09-22T02:32:05.081Z,100.00
2022-09-22T02:34:32.093Z,100.00
2022-09-22T02:37:35.045Z,100.00
2022-09-22T02:40:13.619Z,100.00
2022-09-22T02:42:47.470Z,100.00
2022-09-22T02:45:19.459Z,100.00
2022-09-22T02:47:50.399Z,100.00
2022-09-22T02:50:22.695Z,100.00
2022-09-22T02:52:52.599Z,100.00
2022-09-22T02:55:19.778Z,100.00
2022-09-22T02:57:46.292Z,100.00
2022-09-22T03:00:13.192Z,100.00
2022-09-22T03:02:39.626Z,100.00
2022-09-22T03:05:06.586Z,100.00
2022-09-22T03:07:33.036Z,100.00
2022-09-22T03:09:59.480Z,100.00
2022-09-22T03:12:25.966Z,100.00
2022-09-22T03:14:52.349Z,100.00
2022-09-22T03:17:18.822Z,100.00
2022-09-22T03:19:45.168Z,100.00
2022-09-22T03:22:11.673Z,100.00
2022-09-22T03:24:38.026Z,100.00
2022-09-22T03:27:04.439Z,100.00
2022-09-22T03:29:30.912Z,100.00
2022-09-22T03:31:57.335Z,100.00
2022-09-22T03:34:23.751Z,100.00
2022-09-22T03:36:50.863Z,100.00
2022-09-22T03:39:17.337Z,100.00
2022-09-22T03:41:43.695Z,100.00
2022-09-22T03:44:10.602Z,100.00
2022-09-22T03:46:36.961Z,100.00
2022-09-22T03:49:03.744Z,100.00
2022-09-22T03:51:30.964Z,100.00
2022-09-22T03:53:57.378Z,100.00
2022-09-22T03:56:23.853Z,100.00
2022-09-22T03:58:50.347Z,100.00
2022-09-22T04:01:16.788Z,100.00
2022-09-22T04:03:43.593Z,100.00
2022-09-22T04:06:10.278Z,100.00
2022-09-22T04:08:37.189Z,100.00
2022-09-22T04:11:04.733Z,100.00
2022-09-22T04:13:31.248Z,100.00
2022-09-22T04:15:57.718Z,100.00
2022-09-22T04:18:24.774Z,100.00
2022-09-22T04:20:57.182Z,100.00
2022-09-22T04:23:24.919Z,100.00
2022-09-22T04:25:51.812Z,100.00
2022-09-22T04:28:18.557Z,100.00
2022-09-22T04:30:44.949Z,100.00
2022-09-22T04:33:11.452Z,100.00
2022-09-22T04:35:38.371Z,100.00
2022-09-22T04:38:04.898Z,100.00
2022-09-22T04:40:31.615Z,100.00
2022-09-22T04:42:58.126Z,100.00
2022-09-22T04:45:24.726Z,100.00
2022-09-22T04:47:52.823Z,100.00
2022-09-22T04:50:21.514Z,100.00
2022-09-22T04:52:50.087Z,100.00
2022-09-22T04:55:16.946Z,100.00
2022-09-22T04:57:54.555Z,100.00
2022-09-22T05:00:23.877Z,100.00
2022-09-22T05:02:50.781Z,100.00
2022-09-22T05:05:17.799Z,100.00
2022-09-22T05:07:46.230Z,100.00
2022-09-22T05:10:13.879Z,100.00
2022-09-22T05:12:43.440Z,100.00
2022-09-22T05:15:12.167Z,100.00
2022-09-22T05:17:46.181Z,100.00
2022-09-22T05:20:13.166Z,100.00
2022-09-22T05:22:40.371Z,100.00
2022-09-22T05:25:10.145Z,100.00
2022-09-22T05:27:37.876Z,100.00
2022-09-22T05:30:05.750Z,100.00
2022-09-22T05:32:32.111Z,100.00
2022-09-22T05:34:58.471Z,100.00
2022-09-22T05:37:25.908Z,100.00
2022-09-22T05:39:52.287Z,100.00
2022-09-22T05:42:18.700Z,100.00
2022-09-22T05:44:45.067Z,100.00
2022-09-22T05:47:11.422Z,100.00
2022-09-22T05:49:37.789Z,100.00
2022-09-22T05:52:04.232Z,100.00
2022-09-22T05:54:30.599Z,100.00
2022-09-22T05:56:56.965Z,100.00
2022-09-22T05:59:23.354Z,100.00
2022-09-22T06:01:49.989Z,100.00
2022-09-22T06:04:16.402Z,100.00
2022-09-22T06:06:42.765Z,100.00
2022-09-22T06:09:09.200Z,100.00
2022-09-22T06:11:35.636Z,100.00
2022-09-22T06:14:02.091Z,100.00
2022-09-22T06:16:30.480Z,100.00
2022-09-22T06:18:57.052Z,100.00
2022-09-22T06:21:25.842Z,100.00
2022-09-22T06:23:52.386Z,100.00
2022-09-22T06:26:18.814Z,100.00
2022-09-22T06:28:45.256Z,100.00
2022-09-22T06:31:12.120Z,100.00
2022-09-22T06:33:38.548Z,100.00
2022-09-22T06:36:07.967Z,100.00
2022-09-22T06:38:34.371Z,100.00
2022-09-22T06:41:02.863Z,100.00
2022-09-22T06:43:29.203Z,100.00
2022-09-22T06:46:00.096Z,100.00
2022-09-22T06:48:26.655Z,100.00
2022-09-22T06:50:54.184Z,100.00
2022-09-22T06:53:24.498Z,100.00
2022-09-22T06:55:54.047Z,100.00
2022-09-22T06:58:22.267Z,100.00
2022-09-22T07:00:49.055Z,100.00
2022-09-22T07:03:21.950Z,100.00
2022-09-22T07:06:00.938Z,100.00
2022-09-22T07:08:29.936Z,100.00
2022-09-22T07:11:04.451Z,100.00
2022-09-22T07:13:32.228Z,100.00
2022-09-22T07:16:04.346Z,100.00
2022-09-22T07:18:30.893Z,100.00
2022-09-22T07:21:08.994Z,100.00
2022-09-22T07:23:36.589Z,100.00
2022-09-22T07:26:05.821Z,100.00
2022-09-22T07:28:35.517Z,100.00
2022-09-22T07:31:05.977Z,100.00
2022-09-22T07:33:36.861Z,100.00
2022-09-22T07:36:26.095Z,100.00
2022-09-22T07:38:54.522Z,100.00
2022-09-22T07:41:23.823Z,100.00
2022-09-22T07:43:53.526Z,100.00
2022-09-22T07:46:20.263Z,100.00
2022-09-22T07:48:48.369Z,100.00
2022-09-22T07:51:21.606Z,100.00
2022-09-22T07:54:08.375Z,100.00
2022-09-22T07:56:41.419Z,100.00
2022-09-22T07:59:13.002Z,100.00
2022-09-22T08:01:47.507Z,100.00
2022-09-22T08:04:16.632Z,100.00
2022-09-22T08:06:44.347Z,100.00
2022-09-22T08:09:11.568Z,100.00
2022-09-22T08:11:38.654Z,100.00
2022-09-22T08:14:08.017Z,100.00
2022-09-22T08:16:37.002Z,100.00
2022-09-22T08:19:10.667Z,100.00
2022-09-22T08:21:47.719Z,100.00
2022-09-22T08:24:16.249Z,100.00
2022-09-22T08:26:48.114Z,100.00
2022-09-22T08:29:14.874Z,100.00
2022-09-22T08:31:42.312Z,100.00
2022-09-22T08:34:09.562Z,100.00
2022-09-22T08:36:37.539Z,98.41
2022-09-22T08:39:05.128Z,95.66
2022-09-22T08:41:41.278Z,90.82
2022-09-22T08:44:08.737Z,87.77
2022-09-22T08:46:39.127Z,84.71
2022-09-22T08:49:32.998Z,89.35
2022-09-22T08:52:35.488Z,88.54
2022-09-22T08:55:03.667Z,85.10
2022-09-22T08:58:07.951Z,79.04
2022-09-22T09:00:45.330Z,80.26
2022-09-22T09:03:21.129Z,80.53
2022-09-22T09:05:51.637Z,73.52
2022-09-22T09:08:51.724Z,77.12
2022-09-22T09:11:48.790Z,82.04
2022-09-22T09:14:44.689Z,77.92
2022-09-22T09:17:21.049Z,71.17
2022-09-22T09:19:57.828Z,67.63
2022-09-22T09:22:29.351Z,65.19
2022-09-22T09:27:49.395Z,60.16
2022-09-22T09:30:21.258Z,60.25
2022-09-22T09:33:00.552Z,58.22
2022-09-22T09:35:41.317Z,59.66
2022-09-22T09:38:14.605Z,56.14
2022-09-22T09:40:41.550Z,58.08
2022-09-22T09:43:08.875Z,61.72
2022-09-22T09:46:11.649Z,59.57
2022-09-22T09:49:03.034Z,63.14
2022-09-22T09:51:29.538Z,63.46
2022-09-22T09:53:58.356Z,56.45
2022-09-22T09:56:28.346Z,59.46
2022-09-22T09:59:22.105Z,58.29
2022-09-22T10:01:51.074Z,55.64
2022-09-22T10:04:21.389Z,54.89
2022-09-22T10:06:48.561Z,51.45
2022-09-22T10:09:25.938Z,56.98
2022-09-22T10:12:00.591Z,56.32
2022-09-22T10:14:31.514Z,52.24
2022-09-22T10:16:57.974Z,52.95
2022-09-22T10:19:31.312Z,56.20
2022-09-22T10:22:22.285Z,50.67
2022-09-22T10:25:01.263Z,49.21
2022-09-22T10:27:29.987Z,48.77
2022-09-22T10:30:22.571Z,50.39
2022-09-22T10:33:15.649Z,50.49
2022-09-22T10:35:45.155Z,54.03
2022-09-22T10:38:18.872Z,50.44
2022-09-22T10:40:55.007Z,52.55
2022-09-22T10:43:42.547Z,53.95
2022-09-22T10:46:09.010Z,59.50
2022-09-22T10:48:49.133Z,57.85
2022-09-22T10:51:38.770Z,53.72
2022-09-22T10:54:23.614Z,51.01
2022-09-22T10:56:54.581Z,54.48
2022-09-22T10:59:37.289Z,56.42
2022-09-22T11:02:25.125Z,52.71
2022-09-22T11:05:10.334Z,55.16
2022-09-22T11:08:19.710Z,55.16
2022-09-22T11:11:39.958Z,62.10
2022-09-22T11:14:21.055Z,59.24
2022-09-22T11:16:53.400Z,51.68
2022-09-22T11:19:50.114Z,51.96
2022-09-22T11:22:37.805Z,52.68
2022-09-22T11:25:23.044Z,61.07
2022-09-22T11:27:58.474Z,55.16
2022-09-22T11:30:25.276Z,52.62
2022-09-22T11:33:09.984Z,51.85
2022-09-22T11:36:13.068Z,52.37
2022-09-22T11:38:57.977Z,56.09
2022-09-22T11:41:36.387Z,52.94
2022-09-22T11:44:21.644Z,56.58
2022-09-22T11:47:16.018Z,51.28
2022-09-22T11:50:05.078Z,56.29
2022-09-22T11:52:59.075Z,51.95
2022-09-22T11:55:32.615Z,54.90
2022-09-22T11:58:05.074Z,54.97
2022-09-22T12:00:42.570Z,56.46
2022-09-22T12:03:18.641Z,52.48
2022-09-22T12:05:51.910Z,57.23
2022-09-22T12:08:24.843Z,60.02
2022-09-22T12:10:52.800Z,62.70
2022-09-22T12:13:25.502Z,57.33
2022-09-22T12:16:06.000Z,57.00
2022-09-22T12:19:10.041Z,59.66
2022-09-22T12:21:39.200Z,64.32
2022-09-22T12:24:11.219Z,63.93
2022-09-22T12:26:44.373Z,63.64
2022-09-22T12:29:14.310Z,61.47
2022-09-22T12:31:43.621Z,59.66
2022-09-22T12:34:31.828Z,60.89
2022-09-22T12:37:09.386Z,64.67
2022-09-22T12:39:42.647Z,64.08
2022-09-22T12:42:36.298Z,65.34
2022-09-22T12:45:15.081Z,64.37
2022-09-22T12:47:42.731Z,61.97
2022-09-22T12:50:24.203Z,60.33
2022-09-22T12:52:51.148Z,66.10
2022-09-22T12:55:18.454Z,63.18
2022-09-22T12:57:47.444Z,62.40
2022-09-22T13:00:23.112Z,56.67
2022-09-22T13:02:50.337Z,62.59
2022-09-22T13:05:25.947Z,65.01
2022-09-22T13:07:53.803Z,63.61
2022-09-22T13:10:23.682Z,63.83
2022-09-22T13:13:02.362Z,65.03
2022-09-22T13:15:34.106Z,60.68
2022-09-22T13:18:00.601Z,65.50
2022-09-22T13:20:32.332Z,60.71
2022-09-22T13:23:26.186Z,66.04
2022-09-22T13:25:53.613Z,64.33
2022-09-22T13:28:26.024Z,67.01
2022-09-22T13:31:10.038Z,64.35
2022-09-22T13:33:36.802Z,67.53
2022-09-22T13:36:07.486Z,68.00
2022-09-22T13:38:43.451Z,60.94
2022-09-22T13:41:12.523Z,61.37
2022-09-22T13:43:42.240Z,66.91
2022-09-22T13:46:26.715Z,66.15
2022-09-22T13:48:56.594Z,67.53
2022-09-22T13:51:24.966Z,62.25
2022-09-22T13:53:54.184Z,66.22
2022-09-22T13:56:23.433Z,58.20
2022-09-22T13:58:51.657Z,65.99
2022-09-22T14:01:23.540Z,67.31
2022-09-22T14:03:51.502Z,66.83
2022-09-22T14:06:24.370Z,63.20
2022-09-22T14:08:53.088Z,61.60
2022-09-22T14:11:25.700Z,60.81
2022-09-22T14:13:55.799Z,62.63
2022-09-22T14:16:40.433Z,66.90
2022-09-22T14:19:21.117Z,66.57
2022-09-22T14:21:58.511Z,68.13
2022-09-22T14:24:26.344Z,67.04
2022-09-22T14:27:05.422Z,69.03
2022-09-22T14:29:35.519Z,70.25
2022-09-22T14:32:23.781Z,72.51
2022-09-22T14:34:58.351Z,70.65
2022-09-22T14:37:32.798Z,71.95
2022-09-22T14:40:02.607Z,69.80
2022-09-22T14:42:31.510Z,69.07
2022-09-22T14:45:10.163Z,71.17
2022-09-22T14:47:40.500Z,73.60
2022-09-22T14:50:20.475Z,66.90
2022-09-22T14:52:54.368Z,63.69
2022-09-22T14:55:27.058Z,65.30
2022-09-22T14:57:53.573Z,64.21
2022-09-22T15:00:38.552Z,71.58
2022-09-22T15:03:19.129Z,71.58
2022-09-22T15:05:46.127Z,70.64
2022-09-22T15:08:18.090Z,70.75
2022-09-22T15:10:52.854Z,67.91
2022-09-22T15:13:31.507Z,68.80
2022-09-22T15:15:58.496Z,71.56
2022-09-22T15:18:29.782Z,70.55
2022-09-22T15:20:59.960Z,70.74
2022-09-22T15:23:29.194Z,68.97
2022-09-22T15:25:56.146Z,70.84
2022-09-22T15:28:25.221Z,67.41
2022-09-22T15:30:53.275Z,67.77
2022-09-22T15:33:21.072Z,63.52
2022-09-22T15:35:52.010Z,67.97
2022-09-22T15:38:26.775Z,64.58
2022-09-22T15:40:54.560Z,64.10
2022-09-22T15:43:23.414Z,65.01
2022-09-22T15:45:53.749Z,67.48
2022-09-22T15:48:27.725Z,61.60
2022-09-22T15:50:55.189Z,63.29
2022-09-22T15:53:23.127Z,67.99
2022-09-22T15:55:51.336Z,67.00
2022-09-22T15:58:19.752Z,69.71
2022-09-22T16:00:47.617Z,66.79
2022-09-22T16:03:23.790Z,72.12
2022-09-22T16:05:57.553Z,67.41
2022-09-22T16:08:28.687Z,66.19
2022-09-22T16:11:00.179Z,68.30
2022-09-22T16:13:27.865Z,68.00
2022-09-22T16:15:54.903Z,73.00
2022-09-22T16:18:22.050Z,72.00
2022-09-22T16:20:51.553Z,72.27
2022-09-22T16:23:19.513Z,73.77
2022-09-22T16:25:46.498Z,70.01
2022-09-22T16:28:13.466Z,70.54
2022-09-22T16:30:40.318Z,73.48
2022-09-22T16:33:06.731Z,73.44
2022-09-22T16:35:33.133Z,74.44
2022-09-22T16:38:01.189Z,72.22
2022-09-22T16:40:29.514Z,74.72
2022-09-22T16:42:56.056Z,76.64
2022-09-22T16:45:43.069Z,78.82
2022-09-22T16:48:09.478Z,79.34
2022-09-22T16:50:37.044Z,76.50
2022-09-22T16:53:05.878Z,79.93
2022-09-22T16:55:36.764Z,78.21
2022-09-22T16:58:10.677Z,81.95
2022-09-22T17:00:47.336Z,80.01
2022-09-22T17:03:13.740Z,84.01
2022-09-22T17:05:41.081Z,83.71
2022-09-22T17:08:08.520Z,83.03
2022-09-22T17:10:39.089Z,83.36
2022-09-22T17:13:05.430Z,90.76
2022-09-22T17:15:37.065Z,85.87
2022-09-22T17:18:04.122Z,88.25
2022-09-22T17:20:30.729Z,93.21
2022-09-22T17:22:57.487Z,93.71
2022-09-22T17:25:29.066Z,95.41
2022-09-22T17:27:56.302Z,96.34
2022-09-22T17:30:22.668Z,93.86
2022-09-22T17:32:49.054Z,95.44
2022-09-22T17:35:15.458Z,100.00
2022-09-22T17:37:41.934Z,100.00
2022-09-22T17:40:08.955Z,100.00
2022-09-22T17:42:37.556Z,100.00
2022-09-22T17:45:07.314Z,100.00
2022-09-22T17:47:52.130Z,100.00
2022-09-22T17:50:37.035Z,100.00
2022-09-22T17:53:22.031Z,93.84
2022-09-22T17:55:48.422Z,100.00
2022-09-22T17:58:14.863Z,100.00
2022-09-22T18:00:42.094Z,100.00
2022-09-22T18:03:08.617Z,100.00
2022-09-22T18:05:38.626Z,100.00
2022-09-22T18:08:05.081Z,96.51
2022-09-22T18:10:32.395Z,96.94
2022-09-22T18:12:59.557Z,97.36
2022-09-22T18:15:28.060Z,100.00
2022-09-22T18:17:57.663Z,100.00
2022-09-22T18:20:25.606Z,100.00
2022-09-22T18:22:52.039Z,100.00
2022-09-22T18:25:25.667Z,100.00
2022-09-22T18:27:53.543Z,100.00
2022-09-22T18:30:20.227Z,100.00
2022-09-22T18:32:49.461Z,100.00
2022-09-22T18:35:17.328Z,100.00
2022-09-22T18:37:43.812Z,100.00
2022-09-22T18:40:12.461Z,100.00
2022-09-22T18:42:39.710Z,100.00
2022-09-22T18:45:06.695Z,100.00
2022-09-22T18:47:36.745Z,100.00
2022-09-22T18:50:04.775Z,100.00
2022-09-22T18:52:31.554Z,100.00
2022-09-22T18:54:58.898Z,100.00
2022-09-22T18:57:26.922Z,100.00
2022-09-22T18:59:54.025Z,100.00
2022-09-22T19:02:22.489Z,100.00
2022-09-22T19:04:50.825Z,100.00
2022-09-22T19:07:40.355Z,100.00
2022-09-22T19:10:09.963Z,100.00
2022-09-22T19:12:39.302Z,100.00
2022-09-22T19:15:08.588Z,100.00
2022-09-22T19:17:34.940Z,100.00
2022-09-22T19:20:01.671Z,100.00
2022-09-22T19:22:29.099Z,100.00
2022-09-22T19:24:55.826Z,100.00
2022-09-22T19:27:22.609Z,100.00
2022-09-22T19:29:50.583Z,100.00
2022-09-22T19:32:17.043Z,100.00
2022-09-22T19:34:43.470Z,100.00
2022-09-22T19:37:09.860Z,100.00
2022-09-22T19:39:36.417Z,100.00
2022-09-22T19:42:02.990Z,100.00
2022-09-22T19:44:30.465Z,100.00
2022-09-22T19:46:57.940Z,100.00
2022-09-22T19:49:25.529Z,100.00
2022-09-22T19:51:53.306Z,100.00
2022-09-22T19:54:20.858Z,100.00
2022-09-22T19:56:48.599Z,100.00
2022-09-22T19:59:16.681Z,100.00
2022-09-22T20:01:43.180Z,100.00
2022-09-22T20:04:13.865Z,100.00
2022-09-22T20:06:40.523Z,100.00
2022-09-22T20:09:06.929Z,100.00
2022-09-22T20:11:38.865Z,100.00
2022-09-22T20:14:19.936Z,100.00
2022-09-22T20:16:55.227Z,100.00
2022-09-22T20:19:25.827Z,100.00
2022-09-22T20:21:55.002Z,100.00
2022-09-22T20:24:22.863Z,100.00
2022-09-22T20:26:49.424Z,100.00
2022-09-22T20:29:16.972Z,100.00
2022-09-22T20:31:44.312Z,100.00
2022-09-22T20:34:14.994Z,100.00
2022-09-22T20:36:43.150Z,100.00
2022-09-22T20:39:15.016Z,100.00
2022-09-22T20:41:42.645Z,100.00
2022-09-22T20:44:13.055Z,100.00
2022-09-22T20:46:40.606Z,100.00
2022-09-22T20:49:07.281Z,100.00
2022-09-22T20:51:35.102Z,100.00
2022-09-22T20:54:01.821Z,100.00
2022-09-22T20:56:28.277Z,100.00
2022-09-22T20:58:54.708Z,100.00
2022-09-22T21:01:21.369Z,100.00
2022-09-22T21:03:47.997Z,100.00
2022-09-22T21:06:15.867Z,100.00
2022-09-22T21:09:02.198Z,100.00
2022-09-22T21:11:29.966Z,100.00
2022-09-22T21:14:05.605Z,100.00
2022-09-22T21:16:34.653Z,100.00
2022-09-22T21:19:04.331Z,100.00
2022-09-22T21:21:32.573Z,100.00
2022-09-22T21:24:02.911Z,100.00
2022-09-22T21:26:30.521Z,100.00
2022-09-22T21:28:58.331Z,100.00
2022-09-22T21:31:25.080Z,100.00
2022-09-22T21:33:52.207Z,100.00
2022-09-22T21:36:23.851Z,100.00
2022-09-22T21:38:58.141Z,100.00
2022-09-22T21:41:27.277Z,100.00
2022-09-22T21:43:54.162Z,100.00
2022-09-22T21:46:23.533Z,100.00
2022-09-22T21:48:50.351Z,100.00
2022-09-22T21:51:19.665Z,100.00
2022-09-22T21:53:48.418Z,100.00
2022-09-22T21:56:16.433Z,100.00
2022-09-22T21:58:45.004Z,100.00
2022-09-22T22:01:14.196Z,100.00
2022-09-22T22:03:42.292Z,100.00
2022-09-22T22:06:12.142Z,100.00
2022-09-22T22:08:51.231Z,100.00
2022-09-22T22:11:22.386Z,100.00
2022-09-22T22:13:53.658Z,100.00
2022-09-22T22:16:26.341Z,100.00
2022-09-22T22:18:52.964Z,100.00
2022-09-22T22:21:24.998Z,100.00
2022-09-22T22:23:54.912Z,100.00
2022-09-22T22:26:25.738Z,100.00
2022-09-22T22:28:52.799Z,100.00
2022-09-22T22:31:22.727Z,100.00
2022-09-22T22:33:49.703Z,100.00
2022-09-22T22:36:18.002Z,100.00
2022-09-22T22:38:45.252Z,100.00
2022-09-22T22:41:14.513Z,100.00
2022-09-22T22:43:41.677Z,100.00
2022-09-22T22:46:10.047Z,100.00
2022-09-22T22:48:37.057Z,100.00
2022-09-22T22:51:17.235Z,100.00
2022-09-22T22:53:44.038Z,100.00
2022-09-22T22:56:13.824Z,100.00
2022-09-22T22:58:40.229Z,100.00
2022-09-22T23:01:18.650Z,100.00
2022-09-22T23:03:51.553Z,100.00
2022-09-22T23:06:29.723Z,100.00
2022-09-22T23:08:56.397Z,100.00
2022-09-22T23:11:26.982Z,100.00
2022-09-22T23:13:56.208Z,100.00
2022-09-22T23:16:24.670Z,100.00
2022-09-22T23:18:52.304Z,100.00
2022-09-22T23:21:20.507Z,100.00
2022-09-22T23:23:48.594Z,100.00
2022-09-22T23:26:16.789Z,100.00
2022-09-22T23:28:43.795Z,100.00
2022-09-22T23:31:16.169Z,100.00
2022-09-22T23:33:45.457Z,100.00
2022-09-22T23:36:18.748Z,100.00
2022-09-22T23:38:45.285Z,100.00
2022-09-22T23:41:12.061Z,100.00
2022-09-22T23:43:38.459Z,100.00
2022-09-22T23:46:07.531Z,100.00
2022-09-22T23:48:35.099Z,100.00
2022-09-22T23:51:01.968Z,100.00
2022-09-22T23:53:32.417Z,100.00
2022-09-22T23:55:58.908Z,100.00
2022-09-22T23:58:25.491Z,100.00
